Skip to content
You are here: Gozo Weather
Gozo Weather Station for the very latest live weather conditions from Gozo and Malta
 
 TIME   TEMPERATURE   WINDSPEED   DIRECTION   HUMIDITY   BAROMETER   RAINFALL 
11:05 20.1°C (68.2°F) 14.8 kmh (9.2 mph) N 67% 1014.0hPa (29.94 inHg) 0.0mm (0.00 in.)
10:05 18.6°C (65.5 °F) 14.8 kmh (9.2 mph) SW 70% 1014.0hPa (29.94 inHg) 0.0mm (0.00 in.)
9:05 17.7°C (63.9 °F) 14.8 kmh (9.2 mph) NNW 71% 1014.0hPa (29.94 inHg) 0.0mm (0.00 in.)
7:58 16.6°C (61.9 °F) 11.1 kmh (6.9 mph) WNW 71% 1014.0hPa (29.94 inHg) 0.0mm (0.00 in.)
6:58 16.0°C (60.8 °F) 5.6 kmh (3.5 mph) E 71% 1013.3hPa (29.92 inHg) 0.0mm (0.00 in.)
5:58 15.8°C (60.4 °F) 5.6 kmh (3.5 mph) SSE 70% 1014.0hPa (29.94 inHg) 0.0mm (0.00 in.)
4:58 16.0°C (60.8 °F) 5.6 kmh (3.5 mph) N 69% 1014.0hPa (29.94 inHg) 0.0mm (0.00 in.)
3:58 16.2°C (61.2 °F) 13.0 kmh (8.1 mph) N 68% 1014.7hPa (29.96 inHg) 0.0mm (0.00 in.)
2:58 16.4°C (61.5 °F) 0.0 kmh (0.0 mph) W 67% 1014.0hPa (29.94 inHg) 0.0mm (0.00 in.)
1:58 16.5°C (61.7 °F) 0.0 kmh (0.0 mph) WNW 66% 1014.0hPa (29.94 inHg) 0.0mm (0.00 in.)
12:58 16.6°C (61.9 °F) 0.0 kmh (0.0 mph) NW 64% 1015.0hPa (29.97 inHg) 0.0mm (0.00 in.)
11:58 16.7°C (62.1 °F) 14.8 kmh (9.2 mph) NNW 63% 1015.0hPa (29.97 inHg) 0.0mm (0.00 in.)
10:52 16.9°C (62.4 °F) 0.0 kmh (0.0 mph) SW 62% 1015.0hPa (29.97 inHg) 0.0mm (0.00 in.)
9:52 17.1°C (62.8 °F) 5.6 kmh (3.5 mph) N 60% 1015.0hPa (29.97 inHg) 0.0mm (0.00 in.)
8:52 17.4°C (63.3 °F) 14.8 kmh (9.2 mph) NW 58% 1014.0hPa (29.94 inHg) 0.0mm (0.00 in.)
7:52 17.9°C (64.2 °F) 5.6 kmh (3.5 mph) NNW 57% 1014.0hPa (29.94 inHg) 0.0mm (0.00 in.)
6:52 19.0°C (66.2 °F) 5.6 kmh (3.5 mph) NNW 55% 1014.0hPa (29.94 inHg) 0.0mm (0.00 in.)
5:52 19.4°C (66.9 °F) 16.7 kmh (10.4 mph) WSW 53% 1014.0hPa (29.94 inHg) 0.0mm (0.00 in.)
4:52 19.9°C (67.8 °F) 18.5 kmh (11.5 mph) WNW 50% 1014.0hPa (29.94 inHg) 0.0mm (0.00 in.)
3:52 20.6°C (69.1 °F) 13.0 kmh (8.1 mph) WNW 48% 1015.0hPa (29.97 inHg) 0.0mm (0.00 in.)
2:52 22.0°C (71.6 °F) 16.7 kmh (10.4 mph) W 46% 1015.0hPa (29.97 inHg) 0.0mm (0.00 in.)
1:52 21.6°C (70.9 °F) 11.1 kmh (6.9 mph) WSW 48% 1015.0hPa (29.97 inHg) 0.0mm (0.00 in.)
12:46 20.6°C (69.1 °F) 11.1 kmh (6.9 mph) WSW 49% 1015.0hPa (29.97 inHg) 0.0mm (0.00 in.)
11:46 20.4°C (68.7 °F) 16.7 kmh (10.4 mph) SW 51% 1015.0hPa (29.97 inHg) 0.0mm (0.00 in.)

You need the latest version of Flash Player to view some of our content.


Why not download and install the latest version now?
It will only take you a moment and will ensure that you can view all the latest flash designed websites.

Translate this page

Animated Satellite

Click per aprire http://www.gozo.ws/Animation.php
copyright 2015 EUMETSAT

European Lightning Activity


Please click image for full size

Sponsored Links